Stormwatcher's Retreat Logo




                  Temp     Hi    Low   Out    Dew  Wind  Wind   Wind    Hi    Hi   Wind   Heat    THW   THSW                Rain  Solar   Solar Hi Solar   UV    UV    Hi     Heat    Cool    In     In    In     In     In   In Air          Wind  Wind    ISS   Arc.
  Date    Time     Out   Temp   Temp   Hum    Pt. Speed   Dir    Run Speed   Dir  Chill  Index  Index  Index   Bar    Rain  Rate   Rad.  Energy    Rad.  Index  Dose   UV     D-D     D-D    Temp   Hum    Dew   Heat    EMC Density     ET   Samp   Tx   Recept  Int.
------------------------------------------------------------------------------------------------------------------------------------------------------------------------------------------------------------------------------------------------------------------------
10/23/21 12:10a   53.5   53.5   53.3    94   51.8   9.0     S   1.50  23.0     S   50.0   53.7   50.2   48.0  29.781  0.01  0.04     0     0.00      0     0.0  0.00   0.0   0.080   0.000   70.0    55   53.1   68.7  10.15  .0736    0.000   202    7    100.0   10 
10/23/21 12:20a   53.7   53.7   53.4    94   52.0   8.0     S   1.33  15.0   SSE   50.9   53.9   51.1   48.9  29.778  0.00  0.04     0     0.00      0     0.0  0.00   0.0   0.078   0.000   69.9    55   53.0   68.6  10.15  .0736    0.000   202    7    100.0   10 
10/23/21 12:30a   53.6   53.7   53.5    94   51.9  11.0     S   1.83  26.0   SSE   48.9   53.8   49.1   47.1  29.780  0.00  0.00     0     0.00      0     0.0  0.00   0.0   0.079   0.000   69.9    55   53.0   68.6  10.15  .0736    0.000   203    7    100.0   10 
10/23/21 12:40a   53.7   53.8   53.6    94   52.0  11.0     S   1.83  26.0   SSE   49.0   53.9   49.2   47.2  29.772  0.01  0.00     0     0.00      0     0.0  0.00   0.0   0.078   0.000   69.9    55   53.0   68.6  10.15  .0736    0.000   203    7    100.0   10 
10/23/21 12:50a   53.4   53.7   53.4    94   51.7   8.0     S   1.33  23.0     N   50.6   53.6   50.8   48.5  29.771  0.01  0.04     0     0.00      0     0.0  0.00   0.0   0.081   0.000   69.9    55   53.0   68.6  10.15  .0735    0.000   202    7    100.0   10 
10/23/21  1:00a   53.2   53.4   53.2    93   51.2   9.0     S   1.50  19.0     N   49.6   53.4   49.8   47.6  29.767  0.00  0.04     0     0.00      0     0.0  0.00   0.0   0.082   0.000   69.8    55   52.9   68.6  10.15  .0736    0.000   204    7    100.0   10 
10/23/21  1:10a   53.5   53.5   53.2    94   51.8  11.0     S   1.83  25.0   SSW   48.8   53.7   49.0   47.0  29.766  0.01  0.04     0     0.00      0     0.0  0.00   0.0   0.080   0.000   69.8    55   52.9   68.6  10.15  .0736    0.000   202    7    100.0   10 
10/23/21  1:20a   53.7   53.7   53.5    94   52.0  10.0     S   1.67  18.0   SSW   49.6   53.9   49.8   47.8  29.764  0.01  0.08     0     0.00      0     0.0  0.00   0.0   0.078   0.000   69.8    55   52.9   68.6  10.15  .0735    0.000   204    7    100.0   10 
10/23/21  1:30a   53.8   53.8   53.6    93   51.8  12.0     S   2.00  26.0     N   48.7   54.0   48.9   46.9  29.761  0.00  0.04     0     0.00      0     0.0  0.00   0.0   0.078   0.000   69.7    55   52.8   68.5  10.16  .0736    0.000   204    7    100.0   10 
10/23/21  1:40a   53.9   54.0   53.8    93   51.9  13.0     S   2.17  24.0     S   48.3   54.1   48.5   46.6  29.760  0.01  0.04     0     0.00      0     0.0  0.00   0.0   0.077   0.000   69.7    55   52.8   68.5  10.16  .0736    0.000   205    7    100.0   10 
10/23/21  1:50a   53.8   54.0   53.8    93   51.8  13.0   SSW   2.17  23.0     S   48.2   54.0   48.4   46.5  29.757  0.00  0.00     0     0.00      0     0.0  0.00   0.0   0.078   0.000   69.7    55   52.8   68.5  10.16  .0735    0.000   203    7    100.0   10 
10/23/21  2:00a   53.9   54.0   53.8    93   51.9  13.0     S   2.17  27.0     N   48.3   54.1   48.5   46.6  29.756  0.00  0.00     0     0.00      0     0.0  0.00   0.0   0.077   0.000   69.7    55   52.8   68.5  10.16  .0735    0.001   202    7    100.0   10 
10/23/21  2:10a   54.1   54.1   53.9    94   52.4  11.0     S   1.83  27.0     N   49.5   54.3   49.7   47.7  29.752  0.00  0.00     0     0.00      0     0.0  0.00   0.0   0.076   0.000   69.6    55   52.7   68.4  10.16  .0736    0.000   203    7    100.0   10 
10/23/21  2:20a   54.1   54.2   54.1    93   52.1  14.0   SSW   2.33  35.0   SSE   48.2   54.3   48.4   46.6  29.749  0.00  0.00     0     0.00      0     0.0  0.00   0.0   0.076   0.000   69.6    55   52.7   68.4  10.16  .0735    0.000   202    7    100.0   10 
10/23/21  2:30a   54.2   54.3   54.1    93   52.2  13.0   SSW   2.17  29.0     N   48.6   54.4   48.8   47.0  29.744  0.00  0.00     0     0.00      0     0.0  0.00   0.0   0.075   0.000   69.6    55   52.7   68.4  10.16  .0735    0.000   202    7    100.0   10 
10/23/21  2:40a   54.4   54.4   54.2    93   52.4  13.0     S   2.17  26.0     S   48.9   54.6   49.1   47.3  29.743  0.00  0.00     0     0.00      0     0.0  0.00   0.0   0.074   0.000   69.5    55   52.6   68.3  10.16  .0735    0.000   202    7    100.0   10 
10/23/21  2:50a   54.5   54.5   54.4    93   52.5  13.0   SSW   2.17  24.0   SSW   49.0   54.7   49.2   47.4  29.737  0.00  0.00     0     0.00      0     0.0  0.00   0.0   0.073   0.000   69.5    55   52.6   68.3  10.16  .0735    0.000   204    7    100.0   10 
10/23/21  3:00a   54.6   54.7   54.5    92   52.3  14.0     N   2.33  23.0   SSW   48.8   54.7   48.9   47.1  29.736  0.00  0.00     0     0.00      0     0.0  0.00   0.0   0.072   0.000   69.5    55   52.6   68.3  10.16  .0735    0.001   202    7    100.0   10 
10/23/21  3:10a   54.8   54.8   54.6    92   52.5  15.0     S   2.50  28.0   SSW   48.7   54.9   48.8   47.1  29.736  0.00  0.00     0     0.00      0     0.0  0.00   0.0   0.071   0.000   69.4    55   52.5   68.3  10.16  .0735    0.000   203    7    100.0   10 
10/23/21  3:20a   55.1   55.1   54.8    91   52.5  16.0     N   2.67  31.0   SSW   48.7   55.2   48.8   47.1  29.736  0.00  0.00     0     0.00      0     0.0  0.00   0.0   0.069   0.000   69.4    55   52.5   68.3  10.16  .0735    0.000   203    7    100.0   10 
10/23/21  3:30a   55.3   55.3   55.0    91   52.7  16.0     N   2.67  35.0     N   48.9   55.4   49.0   47.3  29.734  0.00  0.00     0     0.00      0     0.0  0.00   0.0   0.067   0.000   69.4    55   52.5   68.3  10.16  .0735    0.000   204    7    100.0   10 
10/23/21  3:40a   55.3   55.5   55.3    90   52.4  16.0   SSW   2.67  34.0   SSE   48.9   55.4   49.0   47.3  29.733  0.00  0.00     0     0.00      0     0.0  0.00   0.0   0.067   0.000   69.4    55   52.5   68.3  10.16  .0735    0.000   203    7    100.0   10 
10/23/21  3:50a   55.3   55.4   55.3    90   52.4  13.0   SSW   2.17  27.0   SSE   49.9   55.4   50.0   48.2  29.731  0.00  0.00     0     0.00      0     0.0  0.00   0.0   0.067   0.000   69.3    55   52.4   68.2  10.16  .0736    0.000   203    7    100.0   10 
10/23/21  4:00a   55.3   55.4   55.2    90   52.4  15.0     S   2.50  25.0   SSW   49.2   55.4   49.3   47.6  29.729  0.00  0.00     0     0.00      0     0.0  0.00   0.0   0.067   0.000   69.3    55   52.4   68.2  10.16  .0735    0.001   202    7    100.0   10 
10/23/21  4:10a   55.2   55.4   55.1    89   52.0  14.0   SSW   2.33  24.0   SSW   49.4   55.3   49.5   47.7  29.715  0.00  0.00     0     0.00      0     0.0  0.00   0.0   0.068   0.000   69.3    55   52.4   68.2  10.16  .0735    0.000   204    7    100.0   10 
10/23/21  4:20a   55.3   55.3   55.2    89   52.1  14.0     S   2.33  29.0     N   49.5   55.4   49.6   47.8  29.709  0.00  0.00     0     0.00      0     0.0  0.00   0.0   0.067   0.000   69.2    55   52.3   68.1  10.17  .0735    0.000   203    7    100.0   10 
10/23/21  4:30a   55.2   55.3   55.1    89   52.0  13.0     S   2.17  31.0   SSW   49.8   55.3   49.9   48.1  29.705  0.00  0.00     0     0.00      0     0.0  0.00   0.0   0.068   0.000   69.2    55   52.3   68.1  10.17  .0735    0.000   203    7    100.0   10 
10/23/21  4:40a   55.3   55.3   55.1    88   51.8  13.0   SSW   2.17  27.0   SSE   49.9   55.3   49.9   48.0  29.698  0.00  0.00     0     0.00      0     0.0  0.00   0.0   0.067   0.000   69.1    55   52.2   68.1  10.17  .0735    0.000   204    7    100.0   10 
10/23/21  4:50a   55.6   55.6   55.3    87   51.8  15.0   SSW   2.50  31.0   SSE   49.6   55.6   49.6   47.8  29.704  0.00  0.00     0     0.00      0     0.0  0.00   0.0   0.065   0.000   69.1    55   52.2   68.1  10.17  .0735    0.000   204    7    100.0   10 
10/23/21  5:00a   55.5   55.6   55.5    86   51.4  14.0     S   2.33  26.0   SSW   49.8   55.4   49.7   47.9  29.687  0.00  0.00     0     0.00      0     0.0  0.00   0.0   0.066   0.000   69.1    55   52.2   68.1  10.17  .0735    0.001   202    7    100.0   10 
10/23/21  5:10a   55.6   55.6   55.5    86   51.5  14.0     S   2.33  27.0     N   49.9   55.5   49.8   48.0  29.693  0.00  0.00     0     0.00      0     0.0  0.00   0.0   0.065   0.000   69.0    55   52.2   68.0  10.17  .0735    0.000   204    7    100.0   10 
10/23/21  5:20a   55.7   55.7   55.6    85   51.3  15.0   SSW   2.50  34.0     S   49.7   55.6   49.6   47.8  29.694  0.00  0.00     0     0.00      0     0.0  0.00   0.0   0.065   0.000   69.0    55   52.2   68.0  10.17  .0735    0.000   203    7    100.0   10 
10/23/21  5:30a   55.6   55.8   55.6    85   51.2  15.0   SSW   2.50  30.0   SSE   49.6   55.5   49.5   47.7  29.695  0.00  0.00     0     0.00      0     0.0  0.00   0.0   0.065   0.000   69.0    55   52.2   68.0  10.17  .0735    0.000   204    7    100.0   10 
10/23/21  5:40a   55.3   55.7   55.3    86   51.2  13.0   SSW   2.17  26.0     S   49.9   55.2   49.8   47.9  29.690  0.00  0.00     0     0.00      0     0.0  0.00   0.0   0.067   0.000   69.0    55   52.2   68.0  10.17  .0735    0.000   204    7    100.0   10 
10/23/21  5:50a   55.3   55.4   55.3    85   50.9  10.0     S   1.67  19.0   SSW   51.5   55.2   51.4   49.3  29.687  0.00  0.00     0     0.00      0     0.0  0.00   0.0   0.067   0.000   69.0    55   52.2   68.0  10.17  .0735    0.000   203    7    100.0   10 
10/23/21  6:00a   55.5   55.6   55.3    85   51.1  11.0     S   1.83  23.0   SSE   51.2   55.4   51.1   49.1  29.687  0.00  0.00     0     0.00      0     0.0  0.00   0.0   0.066   0.000   69.0    55   52.2   68.0  10.17  .0735    0.001   203    7    100.0   10 
10/23/21  6:10a   55.9   55.9   55.6    83   50.8  11.0   SSW   1.83  23.0     S   51.6   55.7   51.4   49.4  29.685  0.00  0.00     0     0.00      0     0.0  0.00   0.0   0.063   0.000   69.0    55   52.2   68.0  10.17  .0735    0.000   203    7    100.0   10 
10/23/21  6:20a   55.9   56.0   55.9    83   50.8  11.0     S   1.83  21.0   SSW   51.6   55.7   51.4   49.4  29.680  0.00  0.00     0     0.00      0     0.0  0.00   0.0   0.063   0.000   69.1    55   52.2   68.1  10.17  .0735    0.000   202    7    100.0   10 
10/23/21  6:30a   55.9   56.1   55.9    83   50.8   9.0     S   1.50  26.0     S   52.9   55.7   52.7   50.5  29.678  0.00  0.00     0     0.00      0     0.0  0.00   0.0   0.063   0.000   69.2    55   52.3   68.1  10.17  .0734    0.000   203    7    100.0   10 
10/23/21  6:40a   55.9   56.0   55.9    82   50.5   9.0     S   1.50  19.0     S   52.9   55.7   52.7   50.5  29.674  0.00  0.00     0     0.00      0     0.0  0.00   0.0   0.063   0.000   69.4    55   52.5   68.3  10.16  .0734    0.000   202    7    100.0   10 
10/23/21  6:50a   55.9   56.0   55.9    82   50.5   7.0     S   1.17  15.0     S   54.3   55.7   54.1   51.7  29.672  0.00  0.00     0     0.00      0     0.0  0.00   0.0   0.063   0.000   69.6    55   52.7   68.4  10.16  .0734    0.000   201    7    100.0   10 
10/23/21  7:00a   55.9   55.9   55.9    82   50.5   7.0     S   1.17  20.0     E   54.3   55.7   54.1   51.7  29.664  0.00  0.00     0     0.00      0     0.0  0.00   0.0   0.063   0.000   69.7    55   52.8   68.5  10.16  .0733    0.001   203    7    100.0   10 
10/23/21  7:10a   56.2   56.3   55.9    82   50.8   7.0     S   1.17  15.0     N   54.6   56.0   54.4   52.0  29.675  0.00  0.00     0     0.00      0     0.0  0.00   0.0   0.061   0.000   69.8    55   52.9   68.6  10.15  .0733    0.000   201    7    100.0   10 
10/23/21  7:20a   56.3   56.4   56.2    81   50.5   7.0     S   1.17  17.0     S   54.8   56.0   54.5   52.1  29.675  0.00  0.00     0     0.00      0     0.0  0.00   0.0   0.060   0.000   70.0    55   53.1   68.7  10.15  .0733    0.000   204    7    100.0   10 
10/23/21  7:30a   56.8   56.8   56.3    80   50.7   9.0     S   1.50  21.0     S   53.9   56.5   53.6   51.4  29.680  0.00  0.00     0     0.00      0     0.0  0.00   0.0   0.057   0.000   70.1    55   53.2   68.8  10.15  .0733    0.000   201    7    100.0   10 
10/23/21  7:40a   56.9   57.0   56.8    80   50.8   8.0     S   1.33  15.0     S   54.8   56.6   54.5   52.2  29.679  0.00  0.00     0     0.00      0     0.0  0.00   0.0   0.056   0.000   70.3    55   53.4   69.1  10.14  .0733    0.000   201    7    100.0   10 
10/23/21  7:50a   56.7   56.9   56.7    80   50.6  10.0     S   1.67  17.0     S   53.1   56.4   52.8   50.7  29.682  0.00  0.00     0     0.00      0     0.0  0.00   0.0   0.058   0.000   70.4    55   53.5   69.2  10.14  .0732    0.000   203    7    100.0   10 
10/23/21  8:00a   55.8   56.7   55.8    82   50.4   9.0   SSW   1.50  21.0     S   52.8   55.6   52.6   50.4  29.692  0.01  0.00     0     0.00      0     0.0  0.00   0.0   0.064   0.000   70.4    54   53.0   69.1   9.94  .0733    0.001   205    7    100.0   10 
10/23/21  8:10a   55.1   55.8   55.0    85   50.7  12.0   SSW   2.00  25.0     N   50.1   55.0   50.0   48.1  29.693  0.00  0.00     4     0.06      5     0.0  0.00   0.0   0.069   0.000   70.4    54   53.0   69.1   9.94  .0733    0.000   204    7    100.0   10 
10/23/21  8:20a   54.3   55.0   54.3    86   50.2   6.0     S   1.00  15.0     N   52.8   54.2   52.7   50.4  29.693  0.00  0.00     5     0.07      7     0.0  0.00   0.0   0.074   0.000   70.4    54   53.0   69.1   9.94  .0733    0.000   204    7    100.0   10 
10/23/21  8:30a   54.2   54.4   54.2    87   50.4   5.0     S   0.83  13.0     N   53.1   54.2   53.1   51.0  29.700  0.00  0.00    14     0.20     23     0.0  0.00   0.0   0.075   0.000   70.4    54   53.0   69.1   9.94  .0733    0.000   204    7    100.0   10 
10/23/21  8:40a   54.3   54.3   54.2    88   50.8   5.0     S   0.83  11.0   SSW   53.3   54.3   53.3   51.6  29.697  0.00  0.00    28     0.40     35     0.0  0.00   0.0   0.074   0.000   70.4    54   53.0   69.1   9.94  .0733    0.000   204    7    100.0   10 
10/23/21  8:50a   54.3   54.4   54.3    88   50.8   4.0     S   0.67  10.0     N   53.8   54.3   53.8   53.7  29.702  0.00  0.00    39     0.56     42     0.0  0.00   0.0   0.074   0.000   70.3    54   52.9   69.0   9.94  .0733    0.000   203    7    100.0   10 
10/23/21  9:00a   54.3   54.4   54.3    88   50.8   6.0     S   1.00  10.0     N   52.8   54.3   52.8   53.1  29.707  0.00  0.00    48     0.69     77     0.0  0.00   0.0   0.074   0.000   70.4    54   53.0   69.1   9.94  .0733    0.001   203    7    100.0   10 
10/23/21  9:10a   54.6   54.6   54.3    89   51.4   5.0     S   0.83  10.0     N   53.6   54.7   53.7   55.0  29.707  0.00  0.00    71     1.02     90     0.0  0.00   0.0   0.072   0.000   70.4    54   53.0   69.1   9.94  .0733    0.000   204    7    100.0   10 
10/23/21  9:20a   54.5   54.6   54.5    89   51.3   5.0     S   0.83  12.0     N   53.5   54.6   53.6   55.8  29.711  0.00  0.00    96     1.38    100     0.0  0.00   0.0   0.073   0.000   70.3    54   52.9   69.0   9.94  .0733    0.000   202    7    100.0   10 
10/23/21  9:30a   54.5   54.6   54.5    90   51.6   7.0   SSW   1.17  15.0     N   52.6   54.6   52.7   53.5  29.715  0.00  0.00    64     0.92     79     0.0  0.00   0.0   0.073   0.000   70.3    54   52.9   69.0   9.94  .0734    0.000   204    7    100.0   10 
10/23/21  9:40a   54.6   54.6   54.4    90   51.7   8.0     S   1.33  13.0     S   52.0   54.7   52.1   53.2  29.716  0.00  0.00    76     1.09     88     0.0  0.00   0.0   0.072   0.000   70.3    54   52.9   69.0   9.94  .0734    0.000   203    7    100.0   10 
10/23/21  9:50a   54.6   54.6   54.4    90   51.7   7.0     S   1.17  16.0    SW   52.7   54.7   52.8   54.5  29.716  0.01  0.00    90     1.29     98     0.0  0.00   0.5   0.072   0.000   70.4    54   53.0   69.1   9.94  .0733    0.000   204    7    100.0   10 
10/23/21 10:00a   54.6   54.6   54.5    91   52.0   7.0   SSW   1.17  11.0     N   52.7   54.7   52.8   55.7  29.716  0.00  0.00   125     1.79    162     0.6  0.04   0.7   0.072   0.000   70.4    54   53.0   69.1   9.94  .0733    0.002   203    7    100.0   10 
10/23/21 10:10a   54.8   54.9   54.6    91   52.2   8.0   SSW   1.33  15.0     S   52.3   54.9   52.4   56.1  29.719  0.00  0.00   159     2.28    169     0.8  0.06   0.8   0.071   0.000   70.4    54   53.0   69.1   9.94  .0734    0.000   202    7    100.0   10 
10/23/21 10:20a   55.1   55.1   54.8    91   52.5   9.0   SSW   1.50  17.0     N   51.9   55.2   52.0   55.4  29.720  0.00  0.00   157     2.25    183     0.7  0.05   0.8   0.069   0.000   70.4    54   53.0   69.1   9.94  .0734    0.000   203    7    100.0   10 
10/23/21 10:30a   55.3   55.3   55.1    90   52.4  11.0   SSW   1.83  18.0     N   50.9   55.4   51.0   54.6  29.719  0.00  0.00   177     2.54    195     0.8  0.06   0.8   0.067   0.000   70.5    54   53.1   69.3   9.94  .0733    0.000   204    7    100.0   10 
10/23/21 10:40a   55.5   55.5   55.3    90   52.6  11.0   SSW   1.83  20.0   SSW   51.2   55.6   51.3   55.1  29.715  0.00  0.00   192     2.75    211     0.9  0.06   1.0   0.066   0.000   70.5    54   53.1   69.3   9.94  .0733    0.000   202    7    100.0   10 
10/23/21 10:50a   55.7   55.7   55.5    90   52.8  12.0     S   2.00  20.0     N   50.8   55.8   50.9   54.0  29.711  0.00  0.00   171     2.45    181     1.0  0.07   1.0   0.065   0.000   70.5    54   53.1   69.3   9.94  .0733    0.000   200    7    100.0   10 
10/23/21 11:00a   55.6   55.7   55.5    90   52.7  13.0     N   2.17  23.0     N   50.3   55.7   50.4   52.3  29.712  0.00  0.00   131     1.88    153     1.1  0.08   1.1   0.065   0.000   70.5    54   53.1   69.3   9.94  .0733    0.004   204    7    100.0   10 
10/23/21 11:10a   55.5   55.6   55.4    90   52.6  12.0     N   2.00  22.0     N   50.6   55.6   50.7   52.7  29.712  0.00  0.00   132     1.89    141     0.9  0.06   1.0   0.066   0.000   70.5    54   53.1   69.3   9.94  .0733    0.000   200    7    100.0   10 
10/23/21 11:20a   55.5   55.6   55.4    90   52.6  13.0     N   2.17  22.0   SSW   50.2   55.6   50.3   52.1  29.711  0.00  0.00   132     1.89    146     0.8  0.06   0.9   0.066   0.000   70.5    54   53.1   69.3   9.94  .0733    0.000   202    7    100.0   10 
10/23/21 11:30a   55.4   55.6   55.3    91   52.8  15.0     N   2.50  24.0    SW   49.3   55.5   49.4   50.7  29.712  0.00  0.00   119     1.71    141     0.7  0.05   0.8   0.067   0.000   70.5    54   53.1   69.3   9.94  .0733    0.000   202    7    100.0   10 
10/23/21 11:40a   55.1   55.4   55.1    91   52.5  15.0     N   2.50  23.0     N   49.0   55.2   49.1   49.8  29.712  0.00  0.00    97     1.39    111     0.6  0.04   0.6   0.069   0.000   70.4    54   53.0   69.1   9.94  .0733    0.000   204    7    100.0   10 
10/23/21 11:50a   54.9   55.1   54.9    92   52.6  17.0     N   2.83  27.0   SSE   48.2   55.0   48.3   48.9  29.711  0.00  0.00    92     1.32    102     0.7  0.05   0.8   0.070   0.000   70.4    54   53.0   69.1   9.94  .0733    0.000   205    7    100.0   10 
10/23/21 12:00p   54.7   55.0   54.7    93   52.7  17.0     N   2.83  26.0     N   47.9   54.9   48.1   49.0  29.710  0.00  0.00   107     1.53    118     0.8  0.06   0.8   0.072   0.000   70.3    54   52.9   69.0   9.94  .0733    0.003   200    7    100.0   10 
10/23/21 12:10p   54.5   54.8   54.5    93   52.5  16.0     N   2.67  22.0     N   48.0   54.7   48.2   48.9  29.710  0.00  0.00   101     1.45    118     0.7  0.05   0.8   0.073   0.000   70.3    54   52.9   69.0   9.94  .0733    0.000   202    7    100.0   10 
10/23/21 12:20p   54.4   54.6   54.4    94   52.7  16.0     N   2.67  23.0     N   47.9   54.6   48.1   48.8  29.708  0.00  0.00    99     1.42    121     0.6  0.04   0.8   0.074   0.000   70.3    54   52.9   69.0   9.94  .0733    0.000   202    7    100.0   10 
10/23/21 12:30p   54.4   54.5   54.3    95   53.0  17.0     N   2.83  29.0     N   47.6   54.6   47.8   48.4  29.705  0.01  0.00    99     1.42    116     0.6  0.04   0.7   0.074   0.000   70.3    54   52.9   69.0   9.94  .0733    0.000   205    7    100.0   10 
10/23/21 12:40p   54.5   54.5   54.4    95   53.1  17.0     N   2.83  26.0     N   47.7   54.7   47.9   49.0  29.702  0.01  0.04   119     1.71    146     0.7  0.05   0.8   0.073   0.000   70.3    54   52.9   69.0   9.94  .0733    0.000   201    7    100.0   10 
10/23/21 12:50p   54.5   54.6   54.4    95   53.1  15.0     N   2.50  26.0     N   48.3   54.7   48.5   51.0  29.697  0.00  0.04   189     2.71    221     1.1  0.08   1.3   0.073   0.000   70.3    54   52.9   69.0   9.94  .0733    0.000   201    7    100.0   10 
10/23/21  1:00p   54.8   54.8   54.5    95   53.4  13.0     N   2.17  24.0    SW   49.4   55.0   49.6   51.8  29.694  0.00  0.00   166     2.38    190     1.2  0.09   1.3   0.071   0.000   70.3    54   52.9   69.0   9.94  .0733    0.003   203    7    100.0   10 
10/23/21  1:10p   54.7   54.8   54.6    94   53.0  16.0     N   2.67  26.0     N   48.2   54.9   48.4   50.6  29.693  0.00  0.00   172     2.47    221     1.1  0.08   1.3   0.072   0.000   70.3    54   52.9   69.0   9.94  .0733    0.000   201    7    100.0   10 
10/23/21  1:20p   54.9   54.9   54.6    94   53.2  13.0     N   2.17  24.0     N   49.5   55.1   49.7   53.3  29.693  0.00  0.00   234     3.35    336     1.3  0.09   1.7   0.070   0.000   70.2    54   52.8   68.9   9.95  .0733    0.000   202    7    100.0   10 
10/23/21  1:30p   54.8   55.0   54.8    94   53.1  12.0     N   2.00  20.0     N   49.8   55.0   50.0   53.0  29.693  0.00  0.00   197     2.82    308     1.1  0.08   1.6   0.071   0.000   70.3    54   52.9   69.0   9.94  .0733    0.000   203    7    100.0   10 
10/23/21  1:40p   54.8   54.9   54.8    94   53.1  13.0     N   2.17  23.0     N   49.4   55.0   49.6   51.0  29.691  0.00  0.00   127     1.82    165     0.8  0.06   1.0   0.071   0.000   70.2    54   52.8   68.9   9.95  .0733    0.000   202    7    100.0   10 
10/23/21  1:50p   55.1   55.1   54.8    94   53.4  11.0     N   1.83  20.0     N   50.7   55.3   50.9   52.3  29.687  0.00  0.00   126     1.81    172     0.7  0.05   1.0   0.069   0.000   70.2    54   52.8   68.9   9.95  .0733    0.000   203    7    100.0   10 
10/23/21  2:00p   54.2   55.1   54.2    93   52.2  12.0     N   2.00  20.0     N   49.1   54.4   49.3   49.2  29.693  0.00  0.00    65     0.93     81     0.2  0.01   0.5   0.075   0.000   70.1    54   52.7   68.7   9.95  .0733    0.004   201    7    100.0   10 
10/23/21  2:10p   53.3   54.1   53.3    93   51.3   8.0   WNW   1.33  15.0     W   50.5   53.5   50.7   50.0  29.693  0.01  0.00    47     0.67     54     0.0  0.00   0.0   0.081   0.000   70.1    54   52.7   68.7   9.95  .0733    0.000   202    7    100.0   10 
10/23/21  2:20p   53.2   53.3   53.2    94   51.5   5.0   WNW   0.83  11.0    NW   51.9   53.4   52.1   52.8  29.697  0.01  0.04    92     1.32    118     0.4  0.03   0.6   0.082   0.000   70.1    54   52.7   68.7   9.95  .0733    0.000   203    7    100.0   10 
10/23/21  2:30p   53.3   53.4   53.2    94   51.6   3.0     W   0.50   7.0     W   53.3   53.5   53.5   54.3  29.700  0.00  0.04    95     1.36    114     0.5  0.04   0.6   0.081   0.000   70.1    55   53.2   68.8  10.15  .0733    0.000   202    7    100.0   10 
10/23/21  2:40p   53.2   53.4   53.2    94   51.5   1.0   WNW   0.17   3.0     W   53.2   53.4   53.4   53.9  29.701  0.00  0.00    85     1.22     90     0.4  0.03   0.5   0.082   0.000   70.1    55   53.2   68.8  10.15  .0733    0.000   200    7    100.0   10 
10/23/21  2:50p   52.9   53.2   52.9    94   51.2   2.0    SW   0.33   5.0   WSW   52.9   53.2   53.2   53.4  29.704  0.00  0.00    74     1.06    113     0.2  0.01   0.6   0.084   0.000   70.1    55   53.2   68.8  10.15  .0733    0.000   204    7    100.0   10 
10/23/21  3:00p   53.2   53.2   52.9    95   51.8   0.0    SW   0.00   2.0    SW   53.2   53.5   53.5   54.5  29.705  0.00  0.00    98     1.40    116     0.5  0.04   0.6   0.082   0.000   70.1    55   53.2   68.8  10.15  .0733    0.002   204    7    100.0   10 
10/23/21  3:10p   53.3   53.4   53.2    95   51.9   0.0     S   0.00   3.0     S   53.3   53.6   53.6   54.5  29.705  0.00  0.00    95     1.36    114     0.5  0.04   0.6   0.081   0.000   70.1    55   53.2   68.8  10.15  .0733    0.000   204    7    100.0   10 
10/23/21  3:20p   53.6   53.6   53.4    95   52.2   0.0     E   0.00   2.0     E   53.6   53.8   53.8   55.6  29.700  0.01  0.00   119     1.71    149     0.6  0.04   0.7   0.079   0.000   70.1    55   53.2   68.8  10.15  .0733    0.000   204    7    100.0   10 
10/23/21  3:30p   53.5   53.7   53.5    95   52.1   0.0   ---   0.00   0.0   ---   53.5   53.8   53.8   56.7  29.702  0.00  0.00   154     2.21    172     0.7  0.05   0.7   0.080   0.000   70.1    55   53.2   68.8  10.15  .0733    0.000   200    7    100.0   10 
10/23/21  3:40p   53.6   53.6   53.5    95   52.2   0.0   ---   0.00   0.0   ---   53.6   53.8   53.8   56.5  29.704  0.00  0.00   144     2.06    167     0.6  0.04   0.7   0.079   0.000   70.2    55   53.3   69.0  10.15  .0733    0.000   202    7    100.0   10 
10/23/21  3:50p   53.5   53.5   53.5    95   52.1   0.0   SSE   0.00   1.0   SSE   53.5   53.8   53.8   55.9  29.702  0.00  0.00   122     1.75    134     0.5  0.04   0.5   0.080   0.000   70.3    55   53.4   69.1  10.14  .0733    0.000   202    7    100.0   10 
10/23/21  4:00p   53.5   53.5   53.4    95   52.1   0.0   ---   0.00   0.0   ---   53.5   53.8   53.8   56.5  29.693  0.00  0.00   139     1.99    200     0.5  0.04   0.6   0.080   0.000   70.3    55   53.4   69.1  10.14  .0733    0.002   202    7    100.0   10 
10/23/21  4:10p   53.5   53.7   53.5    95   52.1   0.0   ESE   0.00   4.0   ESE   53.5   53.8   53.8   56.3  29.693  0.00  0.00   127     1.82    132     0.3  0.02   0.6   0.080   0.000   70.4    55   53.5   69.2  10.14  .0733    0.000   202    7    100.0   10 
10/23/21  4:20p   53.6   53.6   53.5    95   52.2   0.0   ---   0.00   0.0   ---   53.6   53.8   53.8   55.9  29.684  0.00  0.00   112     1.61    137     0.0  0.00   0.0   0.079   0.000   70.5    55   53.6   69.3  10.14  .0732    0.000   204    7    100.0   10 
10/23/21  4:30p   53.6   53.7   53.5    95   52.2   0.0   ---   0.00   0.0   ---   53.6   53.8   53.8   55.5  29.682  0.00  0.00    99     1.42    111     0.0  0.00   0.0   0.079   0.000   70.5    55   53.6   69.3  10.14  .0732    0.000   202    7    100.0   10 
10/23/21  4:40p   53.4   53.7   53.4    95   52.0   0.0    SE   0.00   4.0    SE   53.4   53.7   53.7   54.8  29.685  0.00  0.00    79     1.13     91     0.0  0.00   0.0   0.081   0.000   70.5    55   53.6   69.3  10.14  .0732    0.000   203    7    100.0   10 
10/23/21  4:50p   53.8   53.8   53.4    95   52.4   0.0   ---   0.00   0.0   ---   53.8   54.0   54.0   57.1  29.689  0.00  0.00   132     1.89    181     0.0  0.00   0.0   0.078   0.000   70.5    55   53.6   69.3  10.14  .0732    0.000   201    7    100.0   10 
10/23/21  5:00p   54.3   54.3   53.8    95   52.9   0.0   ---   0.00   0.0   ---   54.3   54.5   54.5   58.3  29.682  0.00  0.00   148     2.12    227     0.0  0.00   0.0   0.074   0.000   70.6    55   53.6   69.5  10.14  .0732    0.002   203    7    100.0   10 
10/23/21  5:10p   54.4   54.4   54.3    95   53.0   0.0   ---   0.00   0.0   ---   54.4   54.6   54.6   55.8  29.680  0.00  0.00    76     1.09    142     0.0  0.00   0.0   0.074   0.000   70.7    55   53.7   69.6  10.14  .0732    0.000   202    7    100.0   10 
10/23/21  5:20p   54.0   54.4   54.0    95   52.6   0.0   ---   0.00   0.0   ---   54.0   54.2   54.2   55.2  29.677  0.00  0.00    67     0.96     93     0.0  0.00   0.0   0.076   0.000   70.7    55   53.7   69.6  10.14  .0732    0.000   201    7    100.0   10 
10/23/21  5:30p   53.9   54.1   53.8    95   52.5   0.0   ---   0.00   0.0   ---   53.9   54.1   54.1   53.4  29.674  0.00  0.00    29     0.42     39     0.0  0.00   0.0   0.077   0.000   70.7    55   53.7   69.6  10.14  .0732    0.000   204    7    100.0   10 
10/23/21  5:40p   53.5   53.9   53.5    95   52.1   0.0     S   0.00   1.0     S   53.5   53.8   53.8   52.5  29.667  0.00  0.00    16     0.23     23     0.0  0.00   0.0   0.080   0.000   70.8    55   53.8   69.7  10.13  .0731    0.000   202    7    100.0   10 
10/23/21  5:50p   53.3   53.6   53.3    95   51.9   0.0   ---   0.00   0.0   ---   53.3   53.6   53.6   52.0  29.660  0.00  0.00    10     0.14     11     0.0  0.00   0.0   0.081   0.000   70.8    55   53.8   69.7  10.13  .0731    0.000   203    7    100.0   10 
10/23/21  6:00p   53.1   53.3   53.1    95   51.7   0.0   ---   0.00   0.0   ---   53.1   53.4   53.4   51.9  29.653  0.00  0.00    11     0.16     11     0.0  0.00   0.0   0.083   0.000   70.8    55   53.8   69.7  10.13  .0731    0.001   201    7    100.0   10 
10/23/21  6:10p   52.8   53.1   52.8    95   51.4   0.0   ---   0.00   0.0   ---   52.8   53.1   53.1   51.4  29.654  0.00  0.00     6     0.09      9     0.0  0.00   0.0   0.085   0.000   70.7    55   53.7   69.6  10.14  .0731    0.000   204    7    100.0   10 
10/23/21  6:20p   52.5   52.8   52.5    95   51.1   0.0   ---   0.00   0.0   ---   52.5   52.8   52.8   50.4  29.644  0.00  0.00     0     0.00      0     0.0  0.00   0.0   0.087   0.000   70.7    55   53.7   69.6  10.14  .0731    0.000   201    7    100.0   10 
10/23/21  6:30p   52.2   52.5   52.2    94   50.5   0.0   ---   0.00   0.0   ---   52.2   52.5   52.5   50.1  29.639  0.00  0.00     0     0.00      0     0.0  0.00   0.0   0.089   0.000   70.7    55   53.7   69.6  10.14  .0731    0.000   203    7    100.0   10 
10/23/21  6:40p   52.1   52.2   52.1    95   50.7   0.0   ---   0.00   0.0   ---   52.1   52.4   52.4   50.0  29.633  0.00  0.00     0     0.00      0     0.0  0.00   0.0   0.090   0.000   70.7    55   53.7   69.6  10.14  .0731    0.000   204    7    100.0   10 
10/23/21  6:50p   51.8   52.1   51.8    95   50.4   0.0   ---   0.00   0.0   ---   51.8   52.1   52.1   49.7  29.632  0.00  0.00     0     0.00      0     0.0  0.00   0.0   0.092   0.000   70.7    55   53.7   69.6  10.14  .0731    0.000   204    7    100.0   10 
10/23/21  7:00p   51.6   51.8   51.6    95   50.2   0.0   ---   0.00   0.0   ---   51.6   51.9   51.9   49.5  29.631  0.00  0.00     0     0.00      0     0.0  0.00   0.0   0.093   0.000   70.8    55   53.8   69.7  10.13  .0730    0.000   204    7    100.0   10 
10/23/21  7:10p   51.5   51.6   51.5    95   50.1   1.0   ESE   0.17   8.0   ESE   51.5   51.8   51.8   49.4  29.627  0.00  0.00     0     0.00      0     0.0  0.00   0.0   0.094   0.000   70.8    55   53.8   69.7  10.13  .0730    0.000   203    7    100.0   10 
10/23/21  7:20p   51.4   51.5   51.4    95   50.0   2.0   ESE   0.33   8.0     E   51.4   51.8   51.8   49.4  29.618  0.00  0.00     0     0.00      0     0.0  0.00   0.0   0.094   0.000   70.8    55   53.8   69.7  10.13  .0730    0.000   203    7    100.0   10 
10/23/21  7:30p   51.2   51.4   51.2    95   49.8   4.0   ESE   0.67   9.0     E   50.2   51.6   50.6   48.1  29.608  0.00  0.00     0     0.00      0     0.0  0.00   0.0   0.096   0.000   70.8    55   53.8   69.7  10.13  .0730    0.000   204    7    100.0   10 
10/23/21  7:40p   51.0   51.2   51.0    95   49.6   4.0   ESE   0.67   8.0     N   50.0   51.4   50.4   47.9  29.605  0.00  0.00     0     0.00      0     0.0  0.00   0.0   0.097   0.000   70.7    56   54.2   69.7  10.34  .0730    0.000   202    7    100.0   10 
10/23/21  7:50p   51.0   51.0   50.9    95   49.6   4.0   ESE   0.67   8.0   ESE   50.0   51.4   50.4   47.9  29.598  0.00  0.00     0     0.00      0     0.0  0.00   0.0   0.097   0.000   70.7    56   54.2   69.7  10.34  .0730    0.000   200    7    100.0   10 
10/23/21  8:00p   50.8   51.0   50.8    95   49.4   2.0   ESE   0.33   6.0   ESE   50.8   51.2   51.2   48.7  29.595  0.00  0.00     0     0.00      0     0.0  0.00   0.0   0.099   0.000   70.6    56   54.1   69.6  10.34  .0730    0.000   204    7    100.0   10 
10/23/21  8:10p   50.7   50.9   50.7    95   49.3   2.0   ESE   0.33   7.0   ESE   50.7   51.1   51.1   48.6  29.587  0.00  0.00     0     0.00      0     0.0  0.00   0.0   0.099   0.000   70.6    56   54.1   69.6  10.34  .0729    0.000   203    7    100.0   10 
10/23/21  8:20p   50.6   50.8   50.6    95   49.2   2.0   ESE   0.33   7.0   ESE   50.6   51.0   51.0   48.5  29.578  0.00  0.00     0     0.00      0     0.0  0.00   0.0   0.100   0.000   70.5    56   54.0   69.4  10.34  .0729    0.000   201    7    100.0   10 
10/23/21  8:30p   50.6   50.6   50.6    95   49.2   2.0   ESE   0.33   6.0   ESE   50.6   51.0   51.0   48.5  29.573  0.00  0.00     0     0.00      0     0.0  0.00   0.0   0.100   0.000   70.5    56   54.0   69.4  10.34  .0729    0.000   199    7    100.0   10 
10/23/21  8:40p   50.6   50.6   50.6    95   49.2   2.0    SE   0.33   8.0   SSE   50.6   51.0   51.0   48.5  29.569  0.00  0.00     0     0.00      0     0.0  0.00   0.0   0.100   0.000   70.5    56   54.0   69.4  10.34  .0729    0.000   200    7    100.0   10 
10/23/21  8:50p   50.8   50.9   50.6    96   49.7   1.0    SE   0.17   4.0     S   50.8   51.3   51.3   48.8  29.561  0.00  0.00     0     0.00      0     0.0  0.00   0.0   0.099   0.000   70.4    56   54.0   69.3  10.34  .0729    0.000   203    7    100.0   10 
10/23/21  9:00p   50.9   50.9   50.8    95   49.5   1.0   SSW   0.17   4.0   SSW   50.9   51.3   51.3   48.8  29.554  0.00  0.00     0     0.00      0     0.0  0.00   0.0   0.098   0.000   70.4    56   54.0   69.3  10.34  .0729    0.000   203    7    100.0   10 
10/23/21  9:10p   50.8   50.9   50.8    96   49.7   1.0   ESE   0.17   6.0   SSE   50.8   51.3   51.3   48.8  29.541  0.00  0.00     0     0.00      0     0.0  0.00   0.0   0.099   0.000   70.4    56   54.0   69.3  10.34  .0729    0.000   202    7    100.0   10 
10/23/21  9:20p   50.9   50.9   50.8    96   49.8   2.0   ESE   0.33   8.0    SE   50.9   51.4   51.4   48.9  29.532  0.00  0.00     0     0.00      0     0.0  0.00   0.0   0.098   0.000   70.4    56   54.0   69.3  10.34  .0728    0.000   205    7    100.0   10 
10/23/21  9:30p   50.9   51.0   50.8    96   49.8   2.0    SE   0.33   9.0   ENE   50.9   51.4   51.4   48.9  29.527  0.00  0.00     0     0.00      0     0.0  0.00   0.0   0.098   0.000   70.4    56   54.0   69.3  10.34  .0728    0.000   204    7    100.0   10 
10/23/21  9:40p   51.1   51.1   50.9    95   49.7   3.0   SSE   0.50   8.0     S   50.9   51.5   51.3   48.8  29.519  0.00  0.00     0     0.00      0     0.0  0.00   0.0   0.097   0.000   70.4    56   54.0   69.3  10.34  .0728    0.000   204    7    100.0   10 
10/23/21  9:50p   51.1   51.2   51.0    95   49.7   3.0    SE   0.50   9.0    SE   50.9   51.5   51.3   48.8  29.507  0.00  0.00     0     0.00      0     0.0  0.00   0.0   0.097   0.000   70.3    56   53.9   69.2  10.34  .0728    0.000   202    7    100.0   10 
10/23/21 10:00p   51.2   51.2   51.2    95   49.8   4.0   ESE   0.67  10.0    SE   50.2   51.6   50.6   48.1  29.502  0.00  0.00     0     0.00      0     0.0  0.00   0.0   0.096   0.000   70.3    56   53.9   69.2  10.34  .0728    0.000   203    7    100.0   10 
10/23/21 10:10p   51.2   51.3   51.2    95   49.8   4.0   ESE   0.67  10.0    SE   50.2   51.6   50.6   48.1  29.498  0.00  0.00     0     0.00      0     0.0  0.00   0.0   0.096   0.000   70.2    56   53.8   69.1  10.35  .0728    0.000   202    7    100.0   10 
10/23/21 10:20p   51.3   51.3   51.2    95   49.9   4.0   ESE   0.67   9.0   SSE   50.4   51.7   50.8   48.3  29.486  0.00  0.00     0     0.00      0     0.0  0.00   0.0   0.095   0.000   70.2    56   53.8   69.1  10.35  .0728    0.000   203    7    100.0   10 
10/23/21 10:30p   51.3   51.3   51.2    95   49.9   3.0    SE   0.50   7.0   ESE   51.1   51.7   51.5   49.0  29.484  0.00  0.00     0     0.00      0     0.0  0.00   0.0   0.095   0.000   70.2    56   53.8   69.1  10.35  .0728    0.000   202    7    100.0   10 
10/23/21 10:40p   51.2   51.3   51.1    95   49.8   1.0   ESE   0.17   9.0   ESE   51.2   51.6   51.6   49.1  29.476  0.00  0.00     0     0.00      0     0.0  0.00   0.0   0.096   0.000   70.2    56   53.8   69.1  10.35  .0727    0.000   204    7    100.0   10 
10/23/21 10:50p   51.2   51.3   51.1    95   49.8   2.0     S   0.33   6.0     S   51.2   51.6   51.6   49.1  29.487  0.00  0.00     0     0.00      0     0.0  0.00   0.0   0.096   0.000   70.2    56   53.8   69.1  10.35  .0728    0.000   199    7    100.0   10 
10/23/21 11:00p   51.3   51.3   51.2    95   49.9   1.0     S   0.17   5.0   SSE   51.3   51.7   51.7   49.2  29.472  0.01  0.00     0     0.00      0     0.0  0.00   0.0   0.095   0.000   70.2    56   53.8   69.1  10.35  .0727    0.000   201    7    100.0   10 
10/23/21 11:10p   51.5   51.5   51.3    95   50.1   2.0    SE   0.33   7.0     S   51.5   51.8   51.8   49.4  29.465  0.00  0.00     0     0.00      0     0.0  0.00   0.0   0.094   0.000   70.2    56   53.8   69.1  10.35  .0727    0.000   202    7    100.0   10 
10/23/21 11:20p   51.6   51.6   51.4    95   50.2   2.0    SE   0.33  10.0     N   51.6   51.9   51.9   49.5  29.453  0.00  0.00     0     0.00      0     0.0  0.00   0.0   0.093   0.000   70.2    56   53.8   69.1  10.35  .0727    0.000   204    7    100.0   10 
10/23/21 11:30p   52.6   52.6   51.6    96   51.5   6.0     S   1.00  17.0   WSW   50.7   52.9   51.0   48.6  29.445  0.00  0.00     0     0.00      0     0.0  0.00   0.0   0.086   0.000   70.1    56   53.7   68.9  10.35  .0727    0.000   203    7    100.0   10 
10/23/21 11:40p   53.6   53.6   52.7    96   52.5   8.0     S   1.33  25.0   SSE   50.8   53.9   51.1   48.9  29.435  0.00  0.00     0     0.00      0     0.0  0.00   0.0   0.079   0.000   70.1    56   53.7   68.9  10.35  .0727    0.000   203    7    100.0   10 
10/23/21 11:50p   54.5   54.5   53.6    94   52.8  11.0     S   1.83  20.0   SSW   50.0   54.7   50.2   48.2  29.426  0.00  0.00     0     0.00      0     0.0  0.00   0.0   0.073   0.000   70.1    56   53.7   68.9  10.35  .0726    0.000   203    7    100.0   10 
10/24/21 12:00a   55.1   55.1   54.5    93   53.1  15.0     N   2.50  24.0     N   49.0   55.3   49.2   47.5  29.418  0.00  0.00     0     0.00      0     0.0  0.00   0.0   0.069   0.000   70.1    56   53.7   68.9  10.35  .0726    0.000   204    7    100.0   10 
10/24/21 12:10a   55.2   55.3   55.0    92   52.9  13.0     N   2.17  27.0     N   49.8   55.3   49.9   48.1  29.413  0.00  0.00     0     0.00      0     0.0  0.00   0.0   0.068   0.000   70.2    56   53.8   69.1  10.35  .0726    0.000   203    7    100.0   10 
10/24/21 12:20a   55.1   55.2   55.0    93   53.1  10.0     N   1.67  24.0     N   51.2   55.3   51.4   49.4  29.405  0.00  0.00     0     0.00      0     0.0  0.00   0.0   0.069   0.000   70.2    56   53.8   69.1  10.35  .0726    0.000   202    7    100.0   10 
10/24/21 12:30a   55.1   55.1   55.0    93   53.1   9.0     N   1.50  21.0     N   51.9   55.3   52.1   50.0  29.391  0.00  0.00     0     0.00      0     0.0  0.00   0.0   0.069   0.000   70.1    56   53.7   68.9  10.35  .0725    0.000   205    7    100.0   10 
10/24/21 12:40a   55.1   55.1   55.0    92   52.8   7.0     N   1.17  16.0    SE   53.3   55.2   53.4   51.1  29.380  0.00  0.00     0     0.00      0     0.0  0.00   0.0   0.069   0.000   70.1    56   53.7   68.9  10.35  .0725    0.000   203    7    100.0   10 
10/24/21 12:50a   55.1   55.2   55.0    92   52.8   6.0     N   1.00  17.0     N   53.7   55.2   53.8   51.5  29.373  0.00  0.00     0     0.00      0     0.0  0.00   0.0   0.069   0.000   70.1    56   53.7   68.9  10.35  .0725    0.000   202    7    100.0   10 
10/24/21  1:00a   55.7   55.7   55.1    91   53.1   8.0     N   1.33  19.0     N   53.3   55.8   53.4   51.2  29.367  0.00  0.00     0     0.00      0     0.0  0.00   0.0   0.065   0.000   70.0    55   53.1   68.7  10.15  .0725    0.001   203    7    100.0   10 
10/24/21  1:10a   55.7   55.8   55.7    90   52.8   6.0     S   1.00  12.0     S   54.4   55.8   54.5   52.2  29.355  0.00  0.00     0     0.00      0     0.0  0.00   0.0   0.065   0.000   70.1    56   53.7   68.9  10.35  .0725    0.000   204    7    100.0   10 
10/24/21  1:20a   55.8   55.8   55.7    90   52.9   4.0     S   0.67  11.0     S   55.6   55.9   55.7   53.4  29.346  0.00  0.00     0     0.00      0     0.0  0.00   0.0   0.064   0.000   70.1    56   53.7   68.9  10.35  .0724    0.000   200    7    100.0   10 
10/24/21  1:30a   55.7   55.8   55.7    90   52.8   4.0     S   0.67  10.0     S   55.4   55.8   55.5   53.2  29.328  0.00  0.00     0     0.00      0     0.0  0.00   0.0   0.065   0.000   70.1    55   53.2   68.8  10.15  .0724    0.000   202    7    100.0   10 
10/24/21  1:40a   55.7   55.8   55.6    90   52.8   4.0     S   0.67  10.0     N   55.4   55.8   55.5   53.2  29.304  0.00  0.00     0     0.00      0     0.0  0.00   0.0   0.065   0.000   70.1    55   53.2   68.8  10.15  .0723    0.000   204    7    100.0   10 
10/24/21  1:50a   55.6   55.7   55.5    89   52.4   5.0     S   0.83  12.0     N   54.8   55.7   54.9   52.6  29.289  0.00  0.00     0     0.00      0     0.0  0.00   0.0   0.065   0.000   70.1    55   53.2   68.8  10.15  .0723    0.000   204    7    100.0   10 
10/24/21  2:00a   55.8   55.8   55.6    89   52.6   4.0    SE   0.67  10.0    SE   55.6   55.9   55.7   53.4  29.272  0.00  0.00     0     0.00      0     0.0  0.00   0.0   0.064   0.000   70.0    55   53.1   68.7  10.15  .0723    0.001   204    7    100.0   10 
10/24/21  2:10a   55.5   55.8   55.5    89   52.3   6.0     N   1.00  16.0     N   54.2   55.6   54.3   52.0  29.259  0.00  0.00     0     0.00      0     0.0  0.00   0.0   0.066   0.000   70.0    55   53.1   68.7  10.15  .0723    0.000   200    7    100.0   10 
10/24/21  2:20a   55.2   55.6   55.2    89   52.0   8.0     N   1.33  17.0     N   52.7   55.3   52.8   50.6  29.255  0.00  0.00     0     0.00      0     0.0  0.00   0.0   0.068   0.000   70.0    55   53.1   68.7  10.15  .0722    0.000   204    7    100.0   10 
10/24/21  2:30a   54.8   55.2   54.8    90   51.9   8.0     N   1.33  15.0     N   52.3   54.9   52.4   50.1  29.242  0.00  0.00     0     0.00      0     0.0  0.00   0.0   0.071   0.000   69.9    55   53.0   68.6  10.15  .0722    0.000   202    7    100.0   10 
10/24/21  2:40a   54.5   54.8   54.5    90   51.6   6.0     N   1.00  12.0   ESE   53.0   54.6   53.1   50.7  29.233  0.01  0.00     0     0.00      0     0.0  0.00   0.0   0.073   0.000   70.0    55   53.1   68.7  10.15  .0722    0.000   203    7    100.0   10 
10/24/21  2:50a   54.3   54.5   54.3    91   51.7   5.0     N   0.83  12.0    SE   53.3   54.4   53.4   51.0  29.233  0.00  0.00     0     0.00      0     0.0  0.00   0.0   0.074   0.000   70.0    55   53.1   68.7  10.15  .0722    0.000   204    7    100.0   10 
10/24/21  3:00a   54.2   54.3   54.2    91   51.6   5.0     N   0.83  11.0     N   53.1   54.3   53.2   50.8  29.227  0.00  0.00     0     0.00      0     0.0  0.00   0.0   0.075   0.000   70.1    55   53.2   68.8  10.15  .0722    0.001   204    7    100.0   10 
10/24/21  3:10a   54.3   54.3   54.2    91   51.7   4.0     N   0.67  12.0     S   53.8   54.4   53.9   51.5  29.212  0.01  0.00     0     0.00      0     0.0  0.00   0.0   0.074   0.000   70.0    55   53.1   68.7  10.15  .0721    0.000   201    7    100.0   10 
10/24/21  3:20a   54.3   54.4   54.3    92   52.0   4.0     N   0.67  11.0     N   53.8   54.4   53.9   51.6  29.209  0.00  0.00     0     0.00      0     0.0  0.00   0.0   0.074   0.000   70.0    55   53.1   68.7  10.15  .0721    0.000   204    7    100.0   10 
10/24/21  3:30a   54.3   54.4   54.3    92   52.0   4.0   SSE   0.67  13.0     N   53.8   54.4   53.9   51.6  29.198  0.01  0.04     0     0.00      0     0.0  0.00   0.0   0.074   0.000   70.0    55   53.1   68.7  10.15  .0721    0.000   199    7    100.0   10 
10/24/21  3:40a   54.3   54.3   54.2    92   52.0   4.0     N   0.67  13.0   ESE   53.8   54.4   53.9   51.6  29.176  0.00  0.04     0     0.00      0     0.0  0.00   0.0   0.074   0.000   69.9    55   53.0   68.6  10.15  .0721    0.000   205    7    100.0   10 
10/24/21  3:50a   54.2   54.3   54.2    92   51.9   3.0     S   0.50   8.0    SE   54.2   54.3   54.3   51.9  29.173  0.00  0.00     0     0.00      0     0.0  0.00   0.0   0.075   0.000   69.9    55   53.0   68.6  10.15  .0721    0.000   204    7    100.0   10 
10/24/21  4:00a   54.1   54.2   54.1    92   51.8   3.0   SSE   0.50   9.0    SE   54.1   54.2   54.2   51.8  29.158  0.00  0.00     0     0.00      0     0.0  0.00   0.0   0.076   0.000   69.9    55   53.0   68.6  10.15  .0720    0.000   204    7    100.0   10 
10/24/21  4:10a   54.0   54.2   54.0    92   51.7   4.0     S   0.67  10.0     E   53.5   54.1   53.6   51.2  29.164  0.00  0.00     0     0.00      0     0.0  0.00   0.0   0.076   0.000   69.9    55   53.0   68.6  10.15  .0720    0.000   202    7    100.0   10 
10/24/21  4:20a   54.1   54.1   54.0    93   52.1   3.0     S   0.50   7.0     S   54.1   54.3   54.3   52.0  29.154  0.00  0.00     0     0.00      0     0.0  0.00   0.0   0.076   0.000   70.0    55   53.1   68.7  10.15  .0720    0.000   203    7    100.0   10 
10/24/21  4:30a   54.0   54.1   54.0    93   52.0   4.0     S   0.67   9.0     N   53.5   54.2   53.7   51.4  29.150  0.01  0.00     0     0.00      0     0.0  0.00   0.0   0.076   0.000   69.9    55   53.0   68.6  10.15  .0720    0.000   202    7    100.0   10 
10/24/21  4:40a   54.0   54.0   54.0    93   52.0   4.0     S   0.67  11.0     S   53.5   54.2   53.7   51.4  29.134  0.00  0.00     0     0.00      0     0.0  0.00   0.0   0.076   0.000   69.9    55   53.0   68.6  10.15  .0720    0.000   202    7    100.0   10 
10/24/21  4:50a   53.9   54.0   53.9    93   51.9   4.0     S   0.67  13.0     N   53.4   54.1   53.6   51.2  29.112  0.01  0.00     0     0.00      0     0.0  0.00   0.0   0.077   0.000   69.9    55   53.0   68.6  10.15  .0719    0.000   204    7    100.0   10 
10/24/21  5:00a   53.7   54.0   53.7    93   51.7   4.0   ESE   0.67  11.0     N   53.1   53.9   53.3   50.9  29.099  0.00  0.00     0     0.00      0     0.0  0.00   0.0   0.078   0.000   69.8    55   52.9   68.6  10.15  .0719    0.000   204    7    100.0   10 
10/24/21  5:10a   53.7   53.8   53.6    93   51.7   5.0    SE   0.83  16.0   SSE   52.5   53.9   52.7   50.3  29.094  0.00  0.00     0     0.00      0     0.0  0.00   0.0   0.078   0.000   69.8    55   52.9   68.6  10.15  .0719    0.000   202    7    100.0   10 
10/24/21  5:20a   53.7   53.7   53.6    93   51.7   5.0    SE   0.83  13.0    SE   52.5   53.9   52.7   50.3  29.086  0.00  0.00     0     0.00      0     0.0  0.00   0.0   0.078   0.000   69.9    55   53.0   68.6  10.15  .0718    0.000   202    7    100.0   10 
10/24/21  5:30a   54.4   54.4   53.7    93   52.4   7.0     S   1.17  17.0   SSE   52.5   54.6   52.7   50.4  29.083  0.00  0.00     0     0.00      0     0.0  0.00   0.0   0.074   0.000   69.9    55   53.0   68.6  10.15  .0718    0.000   202    7    100.0   10 
10/24/21  5:40a   54.8   54.8   54.4    93   52.8   7.0     S   1.17  23.0    SE   53.0   55.0   53.2   50.9  29.068  0.00  0.00     0     0.00      0     0.0  0.00   0.0   0.071   0.000   69.9    55   53.0   68.6  10.15  .0718    0.000   205    7    100.0   10 
10/24/21  5:50a   55.4   55.4   54.8    93   53.4   7.0     S   1.17  23.0     S   53.7   55.6   53.9   51.6  29.055  0.00  0.00     0     0.00      0     0.0  0.00   0.0   0.067   0.000   69.9    55   53.0   68.6  10.15  .0718    0.000   204    7    100.0   10 
10/24/21  6:00a   56.0   56.0   55.4    92   53.7   7.0     S   1.17  21.0     S   54.4   56.1   54.5   52.2  29.048  0.00  0.00     0     0.00      0     0.0  0.00   0.0   0.063   0.000   69.9    55   53.0   68.6  10.15  .0717    0.000   202    7    100.0   10 
10/24/21  6:10a   56.6   56.6   56.0    92   54.3   8.0     S   1.33  22.0     N   54.4   56.7   54.5   52.3  29.026  0.00  0.00     0     0.00      0     0.0  0.00   0.0   0.058   0.000   70.0    55   53.1   68.7  10.15  .0717    0.000   204    7    100.0   10 
10/24/21  6:20a   57.0   57.0   56.6    92   54.7   9.0     S   1.50  19.0   SSE   54.1   57.1   54.2   52.1  29.038  0.00  0.00     0     0.00      0     0.0  0.00   0.0   0.056   0.000   70.1    55   53.2   68.8  10.15  .0717    0.000   203    7    100.0   10 
10/24/21  6:30a   57.5   57.5   56.9    92   55.2  11.0     N   1.83  26.0     S   53.5   57.7   53.7   51.8  29.031  0.01  0.00     0     0.00      0     0.0  0.00   0.0   0.052   0.000   70.2    55   53.3   69.0  10.15  .0716    0.000   204    7    100.0   10 
10/24/21  6:40a   57.4   57.5   57.4    92   55.1  11.0     N   1.83  26.0     N   53.3   57.6   53.5   51.6  29.029  0.02  0.11     0     0.00      0     0.0  0.00   0.0   0.053   0.000   70.4    55   53.5   69.2  10.14  .0716    0.000   204    7    100.0   10 
10/24/21  6:50a   57.9   57.9   57.4    92   55.6  16.0     N   2.67  37.0   SSW   51.9   58.1   52.1   50.5  29.031  0.01  0.11     0     0.00      0     0.0  0.00   0.0   0.049   0.000   70.5    55   53.6   69.3  10.14  .0716    0.000   202    7    100.0   10 
10/24/21  7:00a   57.5   58.0   57.5    92   55.2  22.0     N   3.67  50.0   SSW   50.0   57.7   50.2   48.8  29.040  0.00  0.04     0     0.00      0     0.0  0.00   0.0   0.052   0.000   70.5    55   53.6   69.3  10.14  .0716    0.001   203    7    100.0   10 
10/24/21  7:10a   57.2   57.5   57.2    92   54.9  19.0     N   3.17  32.0     N   50.2   57.3   50.3   48.8  29.043  0.00  0.00     0     0.00      0     0.0  0.00   0.0   0.054   0.000   70.6    55   53.6   69.5  10.14  .0716    0.000   200    7    100.0   10 
10/24/21  7:20a   57.5   57.5   57.2    92   55.2  21.0     N   3.50  37.0     S   50.2   57.7   50.4   49.0  29.040  0.00  0.00     0     0.00      0     0.0  0.00   0.0   0.052   0.000   70.5    54   53.1   69.3   9.94  .0716    0.000   201    7    100.0   10 
10/24/21  7:30a   57.6   57.7   57.5    92   55.3  22.0     N   3.67  36.0   SSW   50.1   57.8   50.3   48.9  29.030  0.00  0.00     0     0.00      0     0.0  0.00   0.0   0.051   0.000   70.5    55   53.6   69.3  10.14  .0716    0.000   201    7    100.0   10 
10/24/21  7:40a   57.8   57.9   57.7    92   55.5  22.0     N   3.67  40.0     S   50.3   58.0   50.5   49.1  29.031  0.00  0.00     0     0.00      0     0.0  0.00   0.0   0.050   0.000   70.4    55   53.5   69.2  10.14  .0716    0.000   204    7    100.0   10 
10/24/21  7:50a   58.0   58.0   57.8    91   55.4  22.0   SSW   3.67  57.0   SSE   50.5   58.1   50.6   49.2  29.033  0.00  0.00     0     0.00      0     0.0  0.00   0.0   0.049   0.000   70.4    55   53.5   69.2  10.14  .0716    0.000   202    7    100.0   10 
10/24/21  8:00a   58.0   58.1   58.0    91   55.4  22.0     N   3.67  44.0     N   50.5   58.1   50.6   49.2  29.035  0.00  0.00     0     0.00      0     0.0  0.00   0.0   0.049   0.000   70.4    55   53.5   69.2  10.14  .0716    0.001   201    7    100.0   10 
10/24/21  8:10a   58.3   58.4   57.9    91   55.7  23.0     N   3.83  49.0   SSW   50.7   58.5   50.9   49.6  29.039  0.00  0.00     3     0.04      9     0.0  0.00   0.0   0.047   0.000   70.5    55   53.6   69.3  10.14  .0716    0.000   204    7    100.0   10 
10/24/21  8:20a   58.6   58.6   58.3    91   56.0  25.0     N   4.17  47.0   SSW   50.7   58.8   50.9   49.8  29.041  0.00  0.00     8     0.11     11     0.0  0.00   0.0   0.044   0.000   70.4    55   53.5   69.2  10.14  .0716    0.000   203    7    100.0   10 
10/24/21  8:30a   58.6   58.7   58.6    91   56.0  24.0     N   4.00  38.0   SSW   50.8   58.8   51.0   49.8  29.053  0.00  0.00     6     0.09      9     0.0  0.00   0.0   0.044   0.000   70.5    55   53.6   69.3  10.14  .0716    0.000   203    7    100.0   10 
10/24/21  8:40a   57.7   58.6   57.7    92   55.4  27.0     N   4.50  43.0   SSE   49.3   57.9   49.5   48.4  29.066  0.00  0.00     7     0.10      9     0.0  0.00   0.0   0.051   0.000   70.5    55   53.6   69.3  10.14  .0717    0.000   203    7    100.0   10 
10/24/21  8:50a   57.3   57.7   57.2    93   55.3  26.0     N   4.33  46.0     N   49.0   57.5   49.2   48.5  29.068  0.00  0.00    14     0.20     21     0.0  0.00   0.0   0.053   0.000   70.5    55   53.6   69.3  10.14  .0717    0.000   201    7    100.0   10 
10/24/21  9:00a   56.6   57.3   56.6    92   54.3  25.0     N   4.17  45.0     S   48.4   56.7   48.5   47.7  29.067  0.00  0.00    11     0.16     14     0.0  0.00   0.0   0.058   0.000   70.5    55   53.6   69.3  10.14  .0717    0.002   201    7    100.0   10 
10/24/21  9:10a   56.9   57.0   56.6    92   54.6  22.0     N   3.67  39.0     N   49.3   57.0   49.4   48.9  29.082  0.00  0.00    24     0.34     30     0.0  0.00   0.0   0.056   0.000   70.5    55   53.6   69.3  10.14  .0717    0.000   203    7    100.0   10 
10/24/21  9:20a   57.3   57.3   56.9    91   54.7  23.0     N   3.83  37.0     N   49.5   57.4   49.6   49.4  29.081  0.00  0.00    36     0.52     47     0.0  0.00   0.0   0.053   0.000   70.5    55   53.6   69.3  10.14  .0717    0.000   204    7    100.0   10 
10/24/21  9:30a   57.5   57.5   57.2    91   54.9  22.0     N   3.67  40.0     N   50.0   57.6   50.1   50.5  29.087  0.00  0.00    58     0.83     69     0.0  0.00   0.0   0.052   0.000   70.5    55   53.6   69.3  10.14  .0717    0.000   204    7    100.0   10 
10/24/21  9:40a   57.6   57.6   57.5    91   55.0  22.0     N   3.67  39.0     S   50.1   57.7   50.2   50.6  29.082  0.00  0.00    61     0.87     74     0.0  0.00   0.0   0.051   0.000   70.6    55   53.6   69.5  10.14  .0717    0.000   202    7    100.0   10 
10/24/21  9:50a   57.4   57.6   57.3    91   54.8  22.0     N   3.67  35.0   SSW   49.8   57.5   49.9   50.0  29.087  0.00  0.00    50     0.72     63     0.0  0.00   0.0   0.053   0.000   70.6    55   53.6   69.5  10.14  .0717    0.000   201    7    100.0   10 
10/24/21 10:00a   57.4   57.5   57.3    90   54.5  23.0     N   3.83  50.0     N   49.6   57.5   49.7   50.2  29.090  0.00  0.00    70     1.00     90     0.0  0.00   0.0   0.053   0.000   70.6    55   53.6   69.5  10.14  .0717    0.002   203    7    100.0   10 
10/24/21 10:10a   57.5   57.5   57.3    90   54.6  22.0     N   3.67  34.0     N   50.0   57.6   50.1   50.5  29.086  0.00  0.00    64     0.92     81     0.0  0.00   0.0   0.052   0.000   70.5    55   53.6   69.3  10.14  .0717    0.000   198    7    100.0   10 
10/24/21 10:20a   57.7   57.7   57.5    89   54.5  23.0     S   3.83  34.0     N   50.0   57.8   50.1   50.2  29.085  0.00  0.00    55     0.79     83     0.0  0.00   0.0   0.051   0.000   70.4    55   53.5   69.2  10.14  .0717    0.000   202    7    100.0   10 
10/24/21 10:30a   53.8   57.6   53.0    92   51.5  33.0   SSW   5.50  49.0   SSE   44.0   53.9   44.1   43.3  29.091  0.24  6.94    14     0.20     16     0.0  0.00   0.0   0.078   0.000   70.3    55   53.4   69.1  10.14  .0718    0.000   202    7    100.0   10 
10/24/21 10:40a   52.6   53.7   52.3    93   50.6  32.0   SSW   5.33  54.0    SW   42.7   52.8   42.9   42.2  29.118  0.08  1.09    20     0.29     28     0.0  0.00   0.0   0.086   0.000   70.4    55   53.5   69.2  10.14  .0718    0.000   202    7    100.0   10 
10/24/21 10:50a   51.7   52.7   51.3    94   50.0  28.0   SSW   4.67  43.0   SSW   42.3   52.0   42.6   42.2  29.101  0.12  3.62    39     0.56     77     0.0  0.00   0.0   0.092   0.000   70.4    55   53.5   69.2  10.14  .0718    0.000   203    7    100.0   10 
10/24/21 11:00a   53.0   53.0   51.7    93   51.0  26.0   SSW   4.33  41.0   SSE   44.1   53.2   44.3   44.2  29.101  0.00  0.05    56     0.80     79     0.1  0.01   0.5   0.083   0.000   70.4    55   53.5   69.2  10.14  .0718    0.003   200    7    100.0   10 
10/24/21 11:10a   53.4   53.4   52.6    93   51.4  22.0   SSW   3.67  39.0     N   45.3   53.6   45.5   45.5  29.098  0.00  0.00    61     0.87    107     0.1  0.01   0.5   0.081   0.000   70.4    55   53.5   69.2  10.14  .0718    0.000   201    7    100.0   10 
10/24/21 11:20a   54.6   54.7   53.5    92   52.3  20.0   SSW   3.33  40.0     N   47.1   54.7   47.2   47.3  29.107  0.00  0.00    64     0.92    113     0.2  0.01   0.5   0.072   0.000   70.4    54   53.0   69.1   9.94  .0718    0.000   202    7    100.0   10 
10/24/21 11:30a   50.1   54.9   50.1    91   47.6  33.0   SSW   5.50  53.0    SW   39.7   50.4   40.0   39.2  29.138  0.12  4.68    18     0.26     37     0.0  0.00   0.0   0.103   0.000   70.1    54   52.7   68.7   9.95  .0719    0.000   199    7    100.0   10 
10/24/21 11:40a   51.5   51.6   50.0    94   49.8  19.0   SSW   3.17  31.0     S   43.8   51.8   44.1   44.1  29.116  0.00  0.06    67     0.96     93     0.2  0.01   0.5   0.094   0.000   70.0    54   52.6   68.6   9.95  .0719    0.000   204    7    100.0   10 
10/24/21 11:50a   52.8   52.8   51.5    94   51.1  24.0   SSW   4.00  49.0   SSE   44.2   53.1   44.5   45.0  29.108  0.11  3.27    93     1.33    165     0.5  0.04   0.9   0.085   0.000   69.9    55   53.0   68.6  10.15  .0719    0.000   200    7    100.0   10 
10/24/21 12:00p   54.5   54.5   52.8    94   52.8  19.0   SSW   3.17  33.0     S   47.2   54.7   47.4   48.4  29.105  0.00  0.04   114     1.63    176     0.6  0.04   1.0   0.073   0.000   69.9    55   53.0   68.6  10.15  .0719    0.002   204    7    100.0   10 
10/24/21 12:10p   55.4   55.4   54.5    94   53.7  21.0     S   3.50  34.0     S   47.7   55.6   47.9   49.9  29.109  0.01  0.04   169     2.42    190     0.9  0.06   1.0   0.067   0.000   69.8    55   52.9   68.6  10.15  .0719    0.000   202    7    100.0   10 
10/24/21 12:20p   55.8   55.8   55.4    91   53.2  25.0   SSW   4.17  43.0   SSW   47.5   55.9   47.6   49.5  29.119  0.00  0.00   184     2.64    186     1.0  0.07   1.0   0.064   0.000   69.8    55   52.9   68.6  10.15  .0719    0.000   203    7    100.0   10 
10/24/21 12:30p   56.3   56.3   55.8    89   53.1  22.0   SSW   3.67  40.0     S   48.6   56.4   48.7   50.7  29.125  0.00  0.00   182     2.61    186     1.0  0.07   1.0   0.060   0.000   69.8    55   52.9   68.6  10.15  .0719    0.000   204    7    100.0   10 
10/24/21 12:40p   56.4   56.5   56.3    90   53.5  22.0   SSW   3.67  34.0   SSW   48.7   56.5   48.8   49.8  29.113  0.00  0.00   122     1.75    186     0.6  0.04   1.0   0.060   0.000   69.8    55   52.9   68.6  10.15  .0719    0.000   203    7    100.0   10 
10/24/21 12:50p   56.6   56.6   56.3    90   53.7  21.0     S   3.50  34.0     S   49.1   56.7   49.2   51.5  29.121  0.00  0.00   199     2.85    221     1.1  0.08   1.2   0.058   0.000   69.8    55   52.9   68.6  10.15  .0719    0.000   203    7    100.0   10 
10/24/21  1:00p   56.8   56.9   56.6    88   53.3  25.0   SSW   4.17  45.0     N   48.6   56.8   48.6   50.5  29.113  0.00  0.00   186     2.67    214     1.1  0.08   1.1   0.057   0.000   69.8    55   52.9   68.6  10.15  .0719    0.005   202    7    100.0   10 
10/24/21  1:10p   56.8   56.9   56.7    85   52.3  22.0   SSW   3.67  38.0     N   49.2   56.7   49.1   50.7  29.122  0.00  0.00   157     2.25    190     0.9  0.06   1.1   0.057   0.000   69.7    55   52.8   68.5  10.16  .0720    0.000   201    7    100.0   10 
10/24/21  1:20p   57.2   57.2   56.8    83   52.1  23.0     S   3.83  38.0     S   49.4   57.0   49.2   50.9  29.107  0.00  0.00   166     2.38    185     0.9  0.06   1.0   0.054   0.000   69.7    55   52.8   68.5  10.16  .0719    0.000   200    7    100.0   10 
10/24/21  1:30p   57.7   57.7   57.1    82   52.2  22.0     N   3.67  38.0     N   50.2   57.5   50.0   52.9  29.112  0.00  0.00   243     3.48    364     1.4  0.10   2.2   0.051   0.000   69.7    55   52.8   68.5  10.16  .0719    0.000   202    7    100.0   10 
10/24/21  1:40p   57.7   57.8   57.5    82   52.2  21.0     N   3.50  37.0     S   50.4   57.5   50.2   51.7  29.119  0.00  0.00   152     2.18    225     1.0  0.07   1.3   0.051   0.000   69.8    55   52.9   68.6  10.15  .0719    0.000   202    7    100.0   10 
10/24/21  1:50p   57.0   57.6   57.0    83   51.9  23.0     N   3.83  43.0   SSE   49.2   56.8   49.0   51.1  29.119  0.00  0.00   195     2.80    244     1.0  0.07   1.2   0.056   0.000   69.8    55   52.9   68.6  10.15  .0719    0.000   202    7    100.0   10 
10/24/21  2:00p   57.0   57.1   56.9    82   51.6  22.0     N   3.67  35.0     N   49.4   56.8   49.2   51.7  29.115  0.00  0.00   217     3.11    330     1.0  0.07   1.3   0.056   0.000   69.8    55   52.9   68.6  10.15  .0719    0.007   203    7    100.0   10 
10/24/21  2:10p   57.3   57.4   57.1    82   51.9  18.0     N   3.00  37.0     N   50.6   57.1   50.4   53.8  29.113  0.00  0.00   251     3.60    318     1.2  0.09   1.3   0.053   0.000   69.8    55   52.9   68.6  10.15  .0719    0.000   203    7    100.0   10 
10/24/21  2:20p   57.4   57.5   57.3    82   51.9  18.0     N   3.00  37.0   SSE   50.7   57.2   50.5   54.0  29.110  0.00  0.00   257     3.68    311     1.2  0.09   1.4   0.053   0.000   69.8    55   52.9   68.6  10.15  .0719    0.000   201    7    100.0   10 
10/24/21  2:30p   57.4   57.5   57.3    80   51.3  22.0   SSW   3.67  42.0   SSE   49.8   57.1   49.5   54.2  29.120  0.00  0.00   366     5.25    584     1.4  0.10   1.7   0.053   0.000   69.9    55   53.0   68.6  10.15  .0719    0.000   202    7    100.0   10 
10/24/21  2:40p   57.7   57.8   57.5    78   50.9  19.0   SSW   3.17  36.0     S   50.8   57.4   50.5   55.9  29.127  0.00  0.00   387     5.55    594     1.4  0.10   1.7   0.051   0.000   70.0    55   53.1   68.7  10.15  .0719    0.000   202    7    100.0   10 
10/24/21  2:50p   57.5   57.6   57.4    77   50.3  23.0   SSW   3.83  49.0     N   49.8   57.1   49.4   52.8  29.122  0.00  0.00   273     3.91    367     1.0  0.07   1.2   0.052   0.000   70.0    55   53.1   68.7  10.15  .0719    0.000   202    7    100.0   10 
10/24/21  3:00p   57.4   57.8   57.4    76   49.9  23.0   SSW   3.83  41.0     N   49.6   56.9   49.1   52.5  29.126  0.00  0.00   270     3.87    497     0.9  0.06   1.3   0.053   0.000   70.1    55   53.2   68.8  10.15  .0719    0.009   203    7    100.0   10 
10/24/21  3:10p   57.2   57.5   57.2    77   50.1  25.0   SSW   4.17  41.0     N   49.0   56.8   48.6   50.7  29.137  0.00  0.00   186     2.67    221     0.8  0.06   0.9   0.054   0.000   70.1    55   53.2   68.8  10.15  .0719    0.000   204    7    100.0   10 
10/24/21  3:20p   57.1   57.2   57.0    78   50.3  22.0     S   3.67  50.0     S   49.5   56.7   49.1   51.6  29.135  0.00  0.00   198     2.84    267     0.7  0.05   0.8   0.055   0.000   70.1    55   53.2   68.8  10.15  .0719    0.000   201    7    100.0   10 
10/24/21  3:30p   56.9   57.2   56.9    79   50.5  23.0   SSW   3.83  38.0   SSW   49.1   56.6   48.8   49.9  29.134  0.00  0.00   123     1.76    178     0.4  0.03   0.7   0.056   0.000   70.1    55   53.2   68.8  10.15  .0719    0.000   203    7    100.0   10 
10/24/21  3:40p   56.7   57.1   56.7    78   49.9  27.0   SSW   4.50  51.0   SSW   48.2   56.3   47.8   50.1  29.135  0.00  0.00   201     2.88    494     0.7  0.05   0.9   0.058   0.000   70.1    55   53.2   68.8  10.15  .0719    0.000   201    7    100.0   10 
10/24/21  3:50p   57.1   57.1   56.7    78   50.3  23.0   SSW   3.83  54.0   SSW   49.3   56.7   48.9   52.8  29.144  0.00  0.00   279     4.00    508     0.7  0.05   0.8   0.055   0.000   70.1    55   53.2   68.8  10.15  .0719    0.000   205    7    100.0   10 
10/24/21  4:00p   57.0   57.1   56.9    77   49.9  23.0     S   3.83  44.0   SSW   49.2   56.6   48.8   52.4  29.143  0.00  0.00   253     3.63    352     0.6  0.04   0.7   0.056   0.000   70.2    54   52.8   68.9   9.95  .0719    0.008   203    7    100.0   10 
10/24/21  4:10p   56.4   57.0   56.4    79   50.0  26.0   SSW   4.33  46.0     N   48.0   56.0   47.6   49.7  29.148  0.00  0.00   171     2.45    281     0.4  0.03   0.6   0.060   0.000   70.2    54   52.8   68.9   9.95  .0720    0.000   199    7    100.0   10 
10/24/21  4:20p   56.4   56.5   56.3    79   50.0  21.0   SSW   3.50  42.0     S   48.9   56.0   48.5   50.9  29.150  0.00  0.00   168     2.41    227     0.0  0.00   0.0   0.060   0.000   70.3    54   52.9   69.0   9.94  .0719    0.000   202    7    100.0   10 
10/24/21  4:30p   56.6   56.6   56.4    79   50.2  23.0   SSW   3.83  40.0   SSW   48.7   56.3   48.4   49.7  29.155  0.00  0.00   111     1.59    153     0.0  0.00   0.0   0.058   0.000   70.3    54   52.9   69.0   9.94  .0720    0.000   205    7    100.0   10 
10/24/21  4:40p   57.1   57.1   56.5    78   50.3  23.0     S   3.83  51.0   SSW   49.3   56.7   48.9   53.0  29.148  0.00  0.00   262     3.76    338     0.0  0.00   0.0   0.055   0.000   70.3    54   52.9   69.0   9.94  .0719    0.000   202    7    100.0   10 
10/24/21  4:50p   57.3   57.3   57.1    77   50.1  27.0   SSW   4.50  48.0     N   48.9   56.9   48.5   51.6  29.162  0.00  0.00   215     3.08    299     0.0  0.00   0.0   0.053   0.000   70.3    54   52.9   69.0   9.94  .0720    0.000   202    7    100.0   10 
10/24/21  5:00p   57.2   57.3   57.2    77   50.1  26.0     S   4.33  53.0    SW   48.9   56.8   48.5   50.9  29.160  0.00  0.00   165     2.37    179     0.0  0.00   0.0   0.054   0.000   70.2    53   52.3   68.8   9.84  .0720    0.007   203    7    100.0   10 
10/24/21  5:10p   57.3   57.3   57.1    77   50.1  25.0     S   4.17  44.0   SSW   49.2   56.9   48.8   50.9  29.154  0.00  0.00   142     2.04    155     0.0  0.00   0.0   0.053   0.000   70.2    53   52.3   68.8   9.84  .0720    0.000   203    7    100.0   10 
10/24/21  5:20p   57.3   57.4   57.2    78   50.5  23.0   SSW   3.83  50.0     N   49.5   56.9   49.1   51.2  29.161  0.00  0.00   135     1.94    149     0.0  0.00   0.0   0.053   0.000   70.2    54   52.8   68.9   9.95  .0720    0.000   204    7    100.0   10 
10/24/21  5:30p   57.3   57.4   57.2    78   50.5  25.0   SSW   4.17  43.0     S   49.2   56.9   48.8   50.2  29.170  0.00  0.00   105     1.51    113     0.0  0.00   0.0   0.053   0.000   70.2    54   52.8   68.9   9.95  .0720    0.000   203    7    100.0   10 
10/24/21  5:40p   57.0   57.3   57.0    79   50.5  24.0   SSW   4.00  43.0     S   49.0   56.7   48.7   49.3  29.165  0.00  0.00    69     0.99     97     0.0  0.00   0.0   0.056   0.000   70.2    54   52.8   68.9   9.95  .0720    0.000   203    7    100.0   10 
10/24/21  5:50p   56.9   57.1   56.9    79   50.5  24.0   SSW   4.00  45.0     N   48.9   56.6   48.6   48.2  29.179  0.00  0.00    30     0.43     47     0.0  0.00   0.0   0.056   0.000   70.1    53   52.2   68.7   9.85  .0721    0.000   202    7    100.0   10 
10/24/21  6:00p   56.8   56.9   56.8    77   49.7  24.0     S   4.00  38.0   SSW   48.8   56.4   48.4   47.3  29.187  0.00  0.00     5     0.07      9     0.0  0.00   0.0   0.057   0.000   70.0    53   52.1   68.5   9.85  .0721    0.006   203    7    100.0   10 
10/24/21  6:10p   56.5   56.9   56.5    78   49.7  22.0   SSW   3.67  42.0     S   48.8   56.1   48.4   46.9  29.183  0.00  0.00     0     0.00      0     0.0  0.00   0.0   0.059   0.000   69.9    54   52.5   68.5   9.95  .0721    0.000   202    7    100.0   10 
10/24/21  6:20p   56.5   56.6   56.5    77   49.4  22.0     N   3.67  39.0   SSW   48.8   56.1   48.4   46.9  29.185  0.00  0.00     0     0.00      0     0.0  0.00   0.0   0.059   0.000   69.8    54   52.4   68.5   9.96  .0721    0.000   203    7    100.0   10 
10/24/21  6:30p   56.5   56.6   56.4    77   49.4  22.0   SSW   3.67  40.0   SSW   48.8   56.1   48.4   46.9  29.179  0.00  0.00     0     0.00      0     0.0  0.00   0.0   0.059   0.000   69.8    54   52.4   68.5   9.96  .0721    0.000   199    7    100.0   10 
10/24/21  6:40p   56.7   56.7   56.5    78   49.9  22.0     S   3.67  41.0   SSW   49.0   56.3   48.6   47.1  29.185  0.00  0.00     0     0.00      0     0.0  0.00   0.0   0.058   0.000   69.8    54   52.4   68.5   9.96  .0721    0.000   204    7    100.0   10 
10/24/21  6:50p   56.7   56.8   56.6    77   49.6  23.0   SSW   3.83  39.0     N   48.8   56.3   48.4   46.9  29.187  0.00  0.00     0     0.00      0     0.0  0.00   0.0   0.058   0.000   69.8    54   52.4   68.5   9.96  .0721    0.000   203    7    100.0   10 
10/24/21  7:00p   56.7   56.7   56.7    76   49.2  22.0   SSW   3.67  42.0     S   49.0   56.2   48.5   47.0  29.191  0.00  0.00     0     0.00      0     0.0  0.00   0.0   0.058   0.000   69.9    54   52.5   68.5   9.95  .0721    0.004   203    7    100.0   10 
10/24/21  7:10p   56.6   56.7   56.6    75   48.8  22.0     S   3.67  42.0     S   48.9   56.1   48.4   46.9  29.184  0.00  0.00     0     0.00      0     0.0  0.00   0.0   0.058   0.000   69.9    54   52.5   68.5   9.95  .0721    0.000   204    7    100.0   10 
10/24/21  7:20p   56.6   56.7   56.5    76   49.1  23.0   SSW   3.83  49.0   SSW   48.7   56.1   48.2   46.7  29.190  0.00  0.00     0     0.00      0     0.0  0.00   0.0   0.058   0.000   69.9    54   52.5   68.5   9.95  .0721    0.000   202    7    100.0   10 
10/24/21  7:30p   56.2   56.6   56.2    77   49.1  23.0   SSW   3.83  56.0     S   48.2   55.7   47.7   46.2  29.196  0.00  0.00     0     0.00      0     0.0  0.00   0.0   0.061   0.000   69.9    54   52.5   68.5   9.95  .0721    0.000   204    7    100.0   10 
10/24/21  7:40p   56.3   56.4   56.2    76   48.8  21.0     S   3.50  40.0    SW   48.8   55.8   48.3   46.7  29.201  0.00  0.00     0     0.00      0     0.0  0.00   0.0   0.060   0.000   69.9    54   52.5   68.5   9.95  .0721    0.000   202    7    100.0   10 
10/24/21  7:50p   56.4   56.4   56.2    76   48.9  23.0   SSW   3.83  43.0   SSW   48.5   55.9   48.0   46.5  29.206  0.00  0.00     0     0.00      0     0.0  0.00   0.0   0.060   0.000   69.9    54   52.5   68.5   9.95  .0722    0.000   203    7    100.0   10 
10/24/21  8:00p   56.3   56.4   56.2    76   48.8  22.0   SSW   3.67  40.0     S   48.6   55.8   48.1   46.6  29.213  0.00  0.00     0     0.00      0     0.0  0.00   0.0   0.060   0.000   69.9    54   52.5   68.5   9.95  .0722    0.004   202    7    100.0   10 
10/24/21  8:10p   56.2   56.4   56.2    77   49.1  26.0   SSW   4.33  46.0   SSE   47.7   55.7   47.2   45.8  29.216  0.00  0.00     0     0.00      0     0.0  0.00   0.0   0.061   0.000   69.9    54   52.5   68.5   9.95  .0722    0.000   204    7    100.0   10 
10/24/21  8:20p   56.0   56.2   56.0    77   48.9  21.0   SSW   3.50  33.0     N   48.4   55.5   47.9   45.9  29.226  0.00  0.00     0     0.00      0     0.0  0.00   0.0   0.063   0.000   69.9    54   52.5   68.5   9.95  .0722    0.000   203    7    100.0   10 
10/24/21  8:30p   56.3   56.3   56.0    77   49.2  24.0     S   4.00  42.0     N   48.2   55.8   47.7   45.9  29.220  0.00  0.00     0     0.00      0     0.0  0.00   0.0   0.060   0.000   69.9    54   52.5   68.5   9.95  .0722    0.000   203    7    100.0   10 
10/24/21  8:40p   56.3   56.4   56.2    77   49.2  25.0   SSW   4.17  44.0     N   48.0   55.8   47.5   45.7  29.224  0.00  0.00     0     0.00      0     0.0  0.00   0.0   0.060   0.000   69.9    54   52.5   68.5   9.95  .0722    0.000   203    7    100.0   10 
10/24/21  8:50p   56.2   56.4   56.2    78   49.4  24.0   SSW   4.00  40.0   SSE   48.1   55.8   47.7   45.9  29.227  0.00  0.00     0     0.00      0     0.0  0.00   0.0   0.061   0.000   69.9    54   52.5   68.5   9.95  .0722    0.000   204    7    100.0   10 
10/24/21  9:00p   56.1   56.2   56.0    79   49.7  25.0   SSW   4.17  42.0     N   47.8   55.7   47.4   45.6  29.230  0.00  0.00     0     0.00      0     0.0  0.00   0.0   0.062   0.000   69.9    53   52.0   68.5   9.85  .0722    0.004   202    7    100.0   10 
10/24/21  9:10p   56.0   56.1   56.0    80   49.9  26.0     S   4.33  47.0     N   47.5   55.7   47.2   45.5  29.232  0.00  0.00     0     0.00      0     0.0  0.00   0.0   0.063   0.000   69.9    53   52.0   68.5   9.85  .0722    0.000   204    7    100.0   10 
10/24/21  9:20p   55.9   56.0   55.9    80   49.8  26.0   SSW   4.33  41.0     N   47.4   55.6   47.1   45.4  29.234  0.00  0.00     0     0.00      0     0.0  0.00   0.0   0.063   0.000   69.8    53   51.9   68.4   9.85  .0723    0.000   203    7    100.0   10 
10/24/21  9:30p   55.9   56.0   55.8    80   49.8  25.0     S   4.17  48.0     N   47.6   55.6   47.3   45.5  29.249  0.00  0.00     0     0.00      0     0.0  0.00   0.0   0.063   0.000   69.8    53   51.9   68.4   9.85  .0723    0.000   203    7    100.0   10 
10/24/21  9:40p   55.8   55.9   55.8    80   49.7  26.0     S   4.33  42.0     N   47.3   55.5   47.0   45.3  29.256  0.00  0.00     0     0.00      0     0.0  0.00   0.0   0.064   0.000   69.8    53   51.9   68.4   9.85  .0723    0.000   204    7    100.0   10 
Email: AdamSPAM@StormwatchersRetreat.com (To send me email remove the word 'SPAM' from my email address.)